Time;durP1;ratioP1;P1;durP2;ratioP2;P2;SDS_P1;SDS_P2;PMS_P1;PMS_P2;Temp;Humidity;BMP_temperature;BMP_pressure;BME280_temperature;BME280_humidity;BME280_pressure;Samples;Min_cycle;Max_cycle;Signal;HPM_P1;HPM_P2
2024/01/25 00:01:41;;;;;;;0.00;0.00;;;9.00;99.90;;;;;;5068745;28;20107;-58
2024/01/25 00:04:07;;;;;;;0.00;0.00;;;8.90;99.90;;;;;;5068962;28;20024;-56
2024/01/25 00:06:32;;;;;;;0.00;0.00;;;8.90;99.90;;;;;;5066293;28;20032;-57
2024/01/25 00:08:58;;;;;;;0.00;0.00;;;8.90;99.90;;;;;;5068711;28;20032;-56
2024/01/25 00:11:24;;;;;;;0.00;0.00;;;8.90;99.90;;;;;;5065802;28;20085;-57
2024/01/25 00:13:49;;;;;;;0.00;0.00;;;8.90;99.90;;;;;;5068934;28;20128;-57
2024/01/25 00:16:15;;;;;;;0.00;0.00;;;8.90;99.90;;;;;;5068880;28;20136;-56
2024/01/25 00:18:40;;;;;;;0.00;0.00;;;8.90;99.90;;;;;;5072575;28;20028;-57
2024/01/25 00:21:06;;;;;;;0.00;0.00;;;8.90;99.90;;;;;;5071242;28;20063;-56
2024/01/25 00:23:33;;;;;;;0.00;0.00;;;8.90;99.90;;;;;;5064527;28;20107;-56
2024/01/25 00:25:59;;;;;;;0.00;0.00;;;9.00;99.90;;;;;;5066489;28;20488;-56
2024/01/25 00:28:26;;;;;;;0.00;0.00;;;9.00;99.90;;;;;;5065061;28;20033;-57
2024/01/25 00:30:51;;;;;;;0.00;0.00;;;9.00;99.90;;;;;;5068314;28;20139;-57
2024/01/25 00:33:17;;;;;;;0.00;0.00;;;8.90;99.90;;;;;;5063570;28;20236;-56
2024/01/25 00:35:43;;;;;;;0.00;0.00;;;9.00;99.90;;;;;;5056573;28;20072;-56
2024/01/25 00:38:09;;;;;;;0.00;0.00;;;8.90;99.90;;;;;;5065596;28;20023;-57
2024/01/25 00:40:35;;;;;;;0.00;0.00;;;8.80;99.90;;;;;;5046827;28;20024;-57
2024/01/25 00:43:01;;;;;;;0.00;0.00;;;8.80;99.90;;;;;;5067716;28;20062;-57
2024/01/25 00:45:26;;;;;;;0.00;0.00;;;8.80;99.90;;;;;;5065300;28;20146;-56
2024/01/25 00:47:52;;;;;;;0.00;0.00;;;8.80;99.90;;;;;;5067554;28;20028;-56
2024/01/25 00:50:23;;;;;;;0.00;0.00;;;8.80;99.90;;;;;;5066843;28;20107;-55
2024/01/25 00:52:50;;;;;;;0.00;0.00;;;8.80;99.90;;;;;;5063680;28;20039;-57
2024/01/25 00:55:15;;;;;;;0.00;0.00;;;8.60;99.90;;;;;;5067728;28;20038;-56
2024/01/25 00:57:41;;;;;;;0.00;0.00;;;8.60;99.90;;;;;;5066101;28;20025;-57
2024/01/25 01:00:08;;;;;;;0.00;0.00;;;8.60;99.90;;;;;;5064124;28;20024;-56
2024/01/25 01:02:38;;;;;;;0.00;0.00;;;8.70;99.90;;;;;;5067433;28;20538;-56
2024/01/25 01:05:04;;;;;;;0.00;0.00;;;8.70;99.90;;;;;;5068513;28;20024;-56
2024/01/25 01:07:30;;;;;;;0.00;0.00;;;8.70;99.90;;;;;;5064997;28;20472;-57
2024/01/25 01:09:56;;;;;;;0.00;0.00;;;8.70;99.90;;;;;;5064875;28;20034;-57
2024/01/25 01:12:21;;;;;;;0.00;0.00;;;8.70;99.90;;;;;;5064784;28;20040;-57
2024/01/25 01:14:47;;;;;;;0.00;0.00;;;8.80;99.90;;;;;;5041093;28;20504;-55
2024/01/25 01:17:13;;;;;;;0.00;0.00;;;8.70;99.90;;;;;;5063555;28;20033;-57
2024/01/25 01:19:39;;;;;;;0.00;0.00;;;8.50;99.90;;;;;;5068229;28;20032;-56
2024/01/25 01:22:04;;;;;;;0.00;0.00;;;8.50;99.90;;;;;;5068047;28;20037;-56
2024/01/25 01:24:30;;;;;;;0.00;0.00;;;8.60;99.90;;;;;;5042674;28;20342;-55
2024/01/25 01:26:55;;;;;;;0.00;0.00;;;8.40;99.90;;;;;;5062301;28;20031;-57
2024/01/25 01:29:21;;;;;;;0.00;0.00;;;8.50;99.90;;;;;;5067646;28;20042;-56
2024/01/25 01:31:47;;;;;;;0.00;0.00;;;8.50;99.90;;;;;;5066802;28;20281;-57
2024/01/25 01:34:13;;;;;;;0.00;0.00;;;8.40;99.90;;;;;;5063932;28;20112;-56
2024/01/25 01:36:39;;;;;;;0.00;0.00;;;8.40;99.90;;;;;;5068872;28;20052;-57
2024/01/25 01:39:06;;;;;;;0.00;0.00;;;8.30;99.90;;;;;;5066526;28;20041;-57
2024/01/25 01:41:31;;;;;;;0.00;0.00;;;8.30;99.90;;;;;;5068670;28;20021;-57
2024/01/25 01:43:57;;;;;;;0.00;0.00;;;8.30;99.90;;;;;;5075762;28;20490;-58
2024/01/25 01:46:37;;;;;;;0.00;0.00;;;8.20;99.90;;;;;;5070284;28;20028;-55
2024/01/25 01:49:13;;;;;;;0.00;0.00;;;8.20;99.90;;;;;;5065796;28;20066;-57
2024/01/25 01:51:40;;;;;;;0.00;0.00;;;8.10;99.90;;;;;;5071126;28;20029;-56
2024/01/25 01:54:09;;;;;;;0.00;0.00;;;8.20;99.90;;;;;;5054596;28;20032;-57
2024/01/25 01:56:35;;;;;;;0.00;0.00;;;8.20;99.90;;;;;;5076103;28;20047;-57
2024/01/25 01:59:04;;;;;;;0.00;0.00;;;8.10;99.90;;;;;;5067062;28;20146;-57
2024/01/25 02:01:29;;;;;;;0.00;0.00;;;7.80;99.90;;;;;;5073643;28;20028;-55
2024/01/25 02:03:55;;;;;;;0.00;0.00;;;7.70;99.90;;;;;;5076975;28;20448;-56
2024/01/25 02:06:23;;;;;;;0.00;0.00;;;7.90;99.90;;;;;;5076020;28;20028;-57
2024/01/25 02:08:50;;;;;;;0.00;0.00;;;7.90;99.90;;;;;;5062972;28;20107;-58
2024/01/25 02:11:17;;;;;;;0.00;0.00;;;7.80;99.90;;;;;;5076423;28;20031;-58
2024/01/25 02:13:43;;;;;;;0.00;0.00;;;7.70;99.90;;;;;;5072279;28;20079;-58
2024/01/25 02:16:08;;;;;;;0.00;0.00;;;7.60;99.90;;;;;;5074132;28;20051;-58
2024/01/25 02:18:34;;;;;;;0.00;0.00;;;7.70;99.90;;;;;;5074923;28;20428;-58
2024/01/25 02:21:00;;;;;;;0.00;0.00;;;7.60;99.90;;;;;;5071298;28;20033;-59
2024/01/25 02:23:26;;;;;;;0.00;0.00;;;7.60;99.90;;;;;;5065863;28;20021;-58
2024/01/25 02:25:51;;;;;;;0.00;0.00;;;7.50;99.90;;;;;;5066658;28;20060;-58
2024/01/25 02:28:17;;;;;;;0.00;0.00;;;7.40;99.90;;;;;;5049702;28;20086;-57
2024/01/25 02:30:42;;;;;;;0.00;0.00;;;7.40;99.90;;;;;;5050591;28;20033;-58
2024/01/25 02:33:08;;;;;;;0.00;0.00;;;7.50;99.90;;;;;;5074981;28;20024;-58
2024/01/25 02:35:34;;;;;;;0.00;0.00;;;7.50;99.90;;;;;;5064661;28;20033;-58
2024/01/25 02:37:59;;;;;;;0.00;0.00;;;7.70;99.90;;;;;;5072840;28;20044;-58
2024/01/25 02:40:25;;;;;;;0.00;0.00;;;7.60;99.90;;;;;;5066539;28;20322;-59
2024/01/25 02:42:51;;;;;;;0.00;0.00;;;7.70;99.90;;;;;;5065641;28;20025;-58
2024/01/25 02:45:16;;;;;;;0.00;0.00;;;7.70;99.90;;;;;;5072191;28;20051;-58
2024/01/25 02:47:42;;;;;;;0.00;0.00;;;7.60;99.90;;;;;;5069671;28;20036;-59
2024/01/25 02:50:08;;;;;;;0.00;0.00;;;7.60;99.90;;;;;;5072516;28;20361;-57
2024/01/25 02:52:33;;;;;;;0.00;0.00;;;7.60;99.90;;;;;;5069763;28;20044;-58
2024/01/25 02:54:59;;;;;;;0.00;0.00;;;7.60;99.90;;;;;;5069406;28;20123;-58
2024/01/25 02:57:25;;;;;;;0.00;0.00;;;7.50;99.90;;;;;;5068258;28;20557;-59
2024/01/25 02:59:50;;;;;;;0.00;0.00;;;7.40;99.90;;;;;;5063836;28;20025;-58
2024/01/25 03:02:18;;;;;;;0.00;0.00;;;7.50;99.90;;;;;;5063359;28;20028;-58
2024/01/25 03:04:45;;;;;;;0.00;0.00;;;7.50;99.90;;;;;;5064456;28;20514;-58
2024/01/25 03:07:10;;;;;;;0.00;0.00;;;7.60;99.90;;;;;;5067614;28;20036;-58
2024/01/25 03:09:36;;;;;;;0.00;0.00;;;7.30;99.90;;;;;;5073651;28;20058;-58
2024/01/25 03:12:01;;;;;;;0.00;0.00;;;7.20;99.90;;;;;;5068925;28;20124;-56
2024/01/25 03:14:27;;;;;;;0.00;0.00;;;7.40;99.90;;;;;;5070652;28;20060;-56
2024/01/25 03:16:53;;;;;;;0.00;0.00;;;7.50;99.90;;;;;;5067055;28;20035;-57
2024/01/25 03:19:18;;;;;;;0.00;0.00;;;7.50;99.90;;;;;;5049787;28;20043;-57
2024/01/25 03:21:44;;;;;;;0.00;0.00;;;7.50;99.90;;;;;;5067591;28;20028;-56
2024/01/25 03:24:09;;;;;;;0.00;0.00;;;7.40;99.90;;;;;;5065947;28;20019;-56
2024/01/25 03:26:35;;;;;;;0.00;0.00;;;7.30;99.90;;;;;;5068748;28;20111;-57
2024/01/25 03:29:00;;;;;;;0.00;0.00;;;7.00;99.90;;;;;;5065320;28;20476;-57
2024/01/25 03:31:26;;;;;;;0.00;0.00;;;7.00;99.90;;;;;;5069464;28;20479;-58
2024/01/25 03:33:51;;;;;;;0.00;0.00;;;7.10;99.90;;;;;;5067977;28;20420;-59
2024/01/25 03:36:17;;;;;;;0.00;0.00;;;7.10;99.90;;;;;;5064264;28;20154;-57
2024/01/25 03:38:43;;;;;;;0.00;0.00;;;7.20;99.90;;;;;;5063996;28;20029;-59
2024/01/25 03:41:09;;;;;;;0.00;0.00;;;7.10;99.90;;;;;;5071365;28;20663;-57
2024/01/25 03:43:35;;;;;;;0.00;0.00;;;7.10;99.90;;;;;;5068172;28;20222;-59
2024/01/25 03:46:00;;;;;;;0.00;0.00;;;7.00;99.90;;;;;;5069575;28;20553;-58
2024/01/25 03:48:26;;;;;;;0.00;0.00;;;7.00;99.90;;;;;;5066797;28;20033;-58
2024/01/25 03:50:56;;;;;;;0.00;0.00;;;7.00;99.90;;;;;;5066126;28;20029;-58
2024/01/25 03:53:24;;;;;;;0.00;0.00;;;7.10;99.90;;;;;;5072013;28;20617;-58
2024/01/25 03:55:50;;;;;;;0.00;0.00;;;7.10;99.90;;;;;;5069303;28;20134;-59
2024/01/25 03:58:18;;;;;;;0.00;0.00;;;7.10;99.90;;;;;;5069960;28;20478;-58
2024/01/25 04:00:43;;;;;;;0.00;0.00;;;7.10;99.90;;;;;;5049815;28;20033;-58
2024/01/25 04:03:10;;;;;;;0.00;0.00;;;7.10;99.90;;;;;;5071625;28;20039;-58
2024/01/25 04:05:36;;;;;;;0.00;0.00;;;7.10;99.90;;;;;;5068629;28;20478;-58
2024/01/25 04:08:02;;;;;;;0.00;0.00;;;7.00;99.90;;;;;;5067468;28;20025;-59
2024/01/25 04:10:27;;;;;;;0.00;0.00;;;7.00;99.90;;;;;;5067300;28;20571;-58
2024/01/25 04:12:53;;;;;;;0.00;0.00;;;6.90;99.90;;;;;;5070177;28;20103;-58
2024/01/25 04:15:19;;;;;;;0.00;0.00;;;6.90;99.90;;;;;;5066020;28;20036;-59
2024/01/25 04:17:44;;;;;;;0.00;0.00;;;6.90;99.90;;;;;;5069216;28;20154;-59
2024/01/25 04:20:10;;;;;;;0.00;0.00;;;7.00;99.90;;;;;;5069305;28;20035;-59
2024/01/25 04:22:36;;;;;;;0.00;0.00;;;7.00;99.90;;;;;;5065943;28;20025;-57
2024/01/25 04:25:02;;;;;;;0.00;0.00;;;7.00;99.90;;;;;;5061888;28;20237;-59
2024/01/25 04:27:27;;;;;;;0.00;0.00;;;6.70;99.90;;;;;;5065316;28;20025;-59
2024/01/25 04:29:54;;;;;;;0.00;0.00;;;6.50;99.90;;;;;;5072345;28;20028;-58
2024/01/25 04:32:19;;;;;;;0.00;0.00;;;6.60;99.90;;;;;;5066528;28;20060;-58
2024/01/25 04:34:47;;;;;;;0.00;0.00;;;6.60;99.90;;;;;;5066317;28;20060;-58
2024/01/25 04:37:13;;;;;;;0.00;0.00;;;6.40;99.90;;;;;;5073646;28;20094;-58
2024/01/25 04:39:38;;;;;;;0.00;0.00;;;6.50;99.90;;;;;;5068467;28;20464;-59
2024/01/25 04:42:04;;;;;;;0.00;0.00;;;6.40;99.90;;;;;;5065373;28;20029;-58
2024/01/25 04:44:30;;;;;;;0.00;0.00;;;6.30;99.90;;;;;;5064420;28;20077;-58
2024/01/25 04:46:56;;;;;;;0.00;0.00;;;6.00;99.90;;;;;;5068401;28;20387;-59
2024/01/25 04:49:21;;;;;;;0.00;0.00;;;6.00;99.90;;;;;;5068649;28;20028;-58
2024/01/25 04:51:47;;;;;;;0.00;0.00;;;5.80;99.90;;;;;;5072022;28;20485;-58
2024/01/25 04:54:15;;;;;;;0.00;0.00;;;5.90;99.90;;;;;;5062238;28;20073;-58
2024/01/25 04:56:41;;;;;;;0.00;0.00;;;5.90;99.90;;;;;;5062291;28;20097;-58
2024/01/25 04:59:06;;;;;;;0.00;0.00;;;5.90;99.90;;;;;;5065026;28;20532;-59
2024/01/25 05:01:32;;;;;;;0.00;0.00;;;6.00;99.90;;;;;;5065944;28;20550;-59
2024/01/25 05:03:58;;;;;;;0.00;0.00;;;6.10;99.90;;;;;;5063491;28;20453;-58
2024/01/25 05:06:23;;;;;;;0.00;0.00;;;6.10;99.90;;;;;;5065534;28;20040;-58
2024/01/25 05:08:49;;;;;;;0.00;0.00;;;6.10;99.90;;;;;;5062086;28;20028;-58
2024/01/25 05:11:14;;;;;;;0.00;0.00;;;6.00;99.90;;;;;;5062681;28;20039;-58
2024/01/25 05:13:40;;;;;;;0.00;0.00;;;6.00;99.90;;;;;;5064887;28;20036;-59
2024/01/25 05:16:05;;;;;;;0.00;0.00;;;6.00;99.90;;;;;;5068916;28;20058;-58
2024/01/25 05:18:31;;;;;;;0.00;0.00;;;5.90;99.90;;;;;;5065082;28;20153;-57
2024/01/25 05:20:57;;;;;;;0.00;0.00;;;5.90;99.90;;;;;;5065819;28;20066;-58
2024/01/25 05:23:23;;;;;;;0.00;0.00;;;5.90;99.90;;;;;;5064762;28;20434;-59
2024/01/25 05:25:49;;;;;;;0.00;0.00;;;5.90;99.90;;;;;;5064697;28;20119;-59
2024/01/25 05:28:14;;;;;;;0.00;0.00;;;5.90;99.90;;;;;;5066226;28;20571;-58
2024/01/25 05:30:40;;;;;;;0.00;0.00;;;5.90;99.90;;;;;;5070242;28;20035;-58
2024/01/25 05:33:05;;;;;;;0.00;0.00;;;5.90;99.90;;;;;;5066867;28;20028;-58
2024/01/25 05:35:33;;;;;;;0.00;0.00;;;5.80;99.90;;;;;;5073804;28;20090;-58
2024/01/25 05:37:59;;;;;;;0.00;0.00;;;5.70;99.90;;;;;;5066081;28;20146;-58
2024/01/25 05:40:24;;;;;;;0.00;0.00;;;5.80;99.90;;;;;;5064370;28;20111;-59
2024/01/25 05:42:50;;;;;;;0.00;0.00;;;5.60;99.90;;;;;;5065525;28;20743;-57
2024/01/25 05:45:15;;;;;;;0.00;0.00;;;5.50;99.90;;;;;;5064006;28;20468;-58
2024/01/25 05:47:41;;;;;;;0.00;0.00;;;5.60;99.90;;;;;;5067536;28;20032;-57
2024/01/25 05:50:07;;;;;;;0.00;0.00;;;5.70;99.90;;;;;;5063300;28;20553;-58
2024/01/25 05:52:33;;;;;;;0.00;0.00;;;5.70;99.90;;;;;;5065291;28;20033;-55
2024/01/25 05:54:59;;;;;;;0.00;0.00;;;5.80;99.90;;;;;;5065467;28;20032;-58
2024/01/25 05:57:24;;;;;;;0.00;0.00;;;5.60;99.90;;;;;;5067574;28;20035;-57
2024/01/25 05:59:50;;;;;;;0.00;0.00;;;5.50;99.90;;;;;;5044916;28;20029;-58
2024/01/25 06:02:15;;;;;;;0.00;0.00;;;5.60;99.90;;;;;;5063084;28;20089;-57
2024/01/25 06:04:41;;;;;;;0.00;0.00;;;5.60;99.90;;;;;;5064368;28;20039;-57
2024/01/25 06:07:06;;;;;;;0.00;0.00;;;5.40;99.90;;;;;;5062157;28;20038;-56
2024/01/25 06:09:32;;;;;;;0.00;0.00;;;5.30;99.90;;;;;;5061987;28;20473;-56
2024/01/25 06:11:58;;;;;;;0.00;0.00;;;5.40;99.90;;;;;;5064952;28;20484;-57
2024/01/25 06:14:24;;;;;;;0.00;0.00;;;5.40;99.90;;;;;;5067064;28;20020;-56
2024/01/25 06:16:50;;;;;;;0.00;0.00;;;5.20;99.90;;;;;;5049244;28;20384;-56
2024/01/25 06:19:15;;;;;;;0.00;0.00;;;5.20;99.90;;;;;;5070951;28;20029;-58
2024/01/25 06:21:41;;;;;;;0.00;0.00;;;5.20;99.90;;;;;;5066447;28;20464;-56
2024/01/25 06:24:07;;;;;;;0.00;0.00;;;5.10;99.90;;;;;;5063892;28;20027;-56
2024/01/25 06:26:33;;;;;;;0.00;0.00;;;5.10;99.90;;;;;;5062737;28;20479;-56
2024/01/25 06:28:58;;;;;;;0.00;0.00;;;5.30;99.90;;;;;;5046550;28;20037;-57
2024/01/25 06:31:25;;;;;;;0.00;0.00;;;5.10;99.90;;;;;;5070263;28;20027;-57
2024/01/25 06:33:52;;;;;;;0.00;0.00;;;5.40;99.90;;;;;;5064066;28;20422;-57
2024/01/25 06:36:18;;;;;;;0.00;0.00;;;5.30;99.90;;;;;;5068548;28;20068;-57
2024/01/25 06:38:44;;;;;;;0.00;0.00;;;5.50;99.90;;;;;;5073580;28;20107;-56
2024/01/25 06:41:09;;;;;;;0.00;0.00;;;5.40;99.90;;;;;;5067306;28;20428;-56
2024/01/25 06:43:35;;;;;;;0.00;0.00;;;5.30;99.90;;;;;;5065043;28;20033;-56
2024/01/25 06:46:00;;;;;;;0.00;0.00;;;5.40;99.90;;;;;;5068781;28;20593;-57
2024/01/25 06:48:26;;;;;;;0.00;0.00;;;5.30;99.90;;;;;;5054895;28;20069;-56
2024/01/25 06:50:52;;;;;;;0.00;0.00;;;5.20;99.90;;;;;;5066059;28;20198;-56
2024/01/25 06:53:18;;;;;;;0.00;0.00;;;5.20;99.90;;;;;;5064792;28;20032;-57
2024/01/25 06:55:43;;;;;;;0.00;0.00;;;5.40;99.90;;;;;;5065964;28;20038;-58
2024/01/25 06:58:09;;;;;;;0.00;0.00;;;5.50;99.90;;;;;;5064337;28;20037;-56
2024/01/25 07:00:34;;;;;;;0.00;0.00;;;5.40;99.90;;;;;;5065367;28;20035;-58
2024/01/25 07:03:00;;;;;;;0.00;0.00;;;5.30;99.90;;;;;;5049563;28;20526;-57
2024/01/25 07:05:26;;;;;;;0.00;0.00;;;5.20;99.90;;;;;;5068437;28;20029;-57
2024/01/25 07:07:52;;;;;;;0.00;0.00;;;5.30;99.90;;;;;;5069814;28;20020;-54
2024/01/25 07:10:18;;;;;;;0.00;0.00;;;5.30;99.90;;;;;;5062973;28;20213;-56
2024/01/25 07:12:43;;;;;;;0.00;0.00;;;5.20;99.90;;;;;;5066210;28;20499;-54
2024/01/25 07:15:09;;;;;;;0.00;0.00;;;5.10;99.90;;;;;;5063637;28;20123;-52
2024/01/25 07:17:35;;;;;;;0.00;0.00;;;5.10;99.90;;;;;;5071748;28;20032;-53
2024/01/25 07:20:00;;;;;;;0.00;0.00;;;5.10;99.90;;;;;;5068437;28;20074;-55
2024/01/25 07:22:26;;;;;;;0.00;0.00;;;5.20;99.90;;;;;;5051691;28;20536;-55
2024/01/25 07:24:51;;;;;;;0.00;0.00;;;5.30;99.90;;;;;;5067256;28;20076;-55
2024/01/25 07:27:17;;;;;;;0.00;0.00;;;5.30;99.90;;;;;;5068251;28;20488;-55
2024/01/25 07:29:45;;;;;;;0.00;0.00;;;5.30;99.90;;;;;;5065767;28;20035;-55
2024/01/25 07:32:11;;;;;;;0.00;0.00;;;5.20;99.90;;;;;;5063613;28;20555;-54
2024/01/25 07:34:37;;;;;;;0.00;0.00;;;5.30;99.90;;;;;;5064228;28;20037;-53
2024/01/25 07:37:03;;;;;;;0.00;0.00;;;5.50;99.90;;;;;;5064722;28;20032;-54
2024/01/25 07:39:29;;;;;;;0.00;0.00;;;5.50;99.90;;;;;;5063138;28;20079;-54
2024/01/25 07:41:54;;;;;;;0.00;0.00;;;5.40;99.90;;;;;;5064367;28;20399;-54
2024/01/25 07:44:20;;;;;;;0.00;0.00;;;5.20;99.90;;;;;;5064037;28;20028;-56
2024/01/25 07:46:46;;;;;;;0.00;0.00;;;5.10;99.90;;;;;;5058794;28;20033;-53
2024/01/25 07:49:11;;;;;;;0.00;0.00;;;5.00;99.90;;;;;;5060208;28;20039;-56
2024/01/25 07:51:37;;;;;;;0.00;0.00;;;5.10;99.90;;;;;;5063828;28;20336;-55
2024/01/25 07:54:02;;;;;;;0.00;0.00;;;5.30;99.90;;;;;;5060849;28;20805;-56
2024/01/25 07:56:29;;;;;;;0.00;0.00;;;5.40;99.90;;;;;;5067299;28;20072;-58
2024/01/25 07:58:54;;;;;;;0.00;0.00;;;5.30;99.90;;;;;;5063603;28;20052;-58
2024/01/25 08:01:21;;;;;;;0.00;0.00;;;5.40;99.90;;;;;;5060452;28;20391;-57
2024/01/25 08:03:46;;;;;;;0.00;0.00;;;5.60;99.90;;;;;;5066578;28;20603;-58
2024/01/25 08:06:12;;;;;;;0.00;0.00;;;5.50;99.90;;;;;;5067353;28;20166;-57
2024/01/25 08:08:38;;;;;;;0.00;0.00;;;5.60;99.90;;;;;;5061176;28;20388;-56
2024/01/25 08:11:04;;;;;;;0.00;0.00;;;5.60;99.90;;;;;;5044126;28;20125;-57
2024/01/25 08:13:29;;;;;;;0.00;0.00;;;5.40;99.90;;;;;;5063673;28;20028;-56
2024/01/25 08:15:56;;;;;;;0.00;0.00;;;5.30;99.90;;;;;;5065546;28;20086;-54
2024/01/25 08:18:22;;;;;;;0.00;0.00;;;5.40;99.90;;;;;;5062912;28;20029;-53
2024/01/25 08:20:49;;;;;;;0.00;0.00;;;5.40;99.90;;;;;;5067401;28;20031;-56
2024/01/25 08:23:15;;;;;;;0.00;0.00;;;5.80;99.90;;;;;;5061893;28;20039;-55
2024/01/25 08:25:41;;;;;;;0.00;0.00;;;5.80;99.90;;;;;;5065142;28;20368;-56
2024/01/25 08:28:07;;;;;;;0.00;0.00;;;5.70;99.90;;;;;;5066370;28;20070;-54
2024/01/25 08:30:32;;;;;;;0.00;0.00;;;5.70;99.90;;;;;;5065102;28;20055;-55
2024/01/25 08:32:59;;;;;;;0.00;0.00;;;5.70;99.90;;;;;;5060892;28;20111;-56
2024/01/25 08:35:25;;;;;;;0.00;0.00;;;5.80;99.90;;;;;;5045899;28;20033;-55
2024/01/25 08:37:50;;;;;;;0.00;0.00;;;5.90;99.90;;;;;;5067302;28;20494;-55
2024/01/25 08:40:16;;;;;;;0.00;0.00;;;6.20;99.90;;;;;;5060572;28;20476;-55
2024/01/25 08:42:42;;;;;;;0.00;0.00;;;6.30;99.90;;;;;;5043591;28;20468;-54
2024/01/25 08:45:08;;;;;;;0.00;0.00;;;6.30;99.90;;;;;;5060287;28;20040;-56
2024/01/25 08:47:35;;;;;;;0.00;0.00;;;6.40;99.90;;;;;;5064625;28;20685;-55
2024/01/25 08:50:00;;;;;;;0.00;0.00;;;6.50;99.90;;;;;;5071241;28;20050;-54
2024/01/25 08:52:26;;;;;;;0.00;0.00;;;6.50;99.90;;;;;;5063530;28;20037;-56
2024/01/25 08:54:52;;;;;;;0.00;0.00;;;6.70;99.90;;;;;;5060705;28;20077;-55
2024/01/25 08:57:18;;;;;;;0.00;0.00;;;6.70;99.90;;;;;;5066477;28;20044;-56
2024/01/25 08:59:43;;;;;;;0.00;0.00;;;6.70;99.90;;;;;;5063443;28;20111;-56
2024/01/25 09:02:09;;;;;;;0.00;0.00;;;6.80;99.90;;;;;;5067380;28;20040;-55
2024/01/25 09:04:36;;;;;;;0.00;0.00;;;6.80;99.90;;;;;;5062311;28;20037;-58
2024/01/25 09:07:02;;;;;;;0.00;0.00;;;6.80;99.90;;;;;;5061798;28;20451;-58
2024/01/25 09:09:28;;;;;;;0.00;0.00;;;6.90;99.90;;;;;;5061816;28;20017;-57
2024/01/25 09:11:53;;;;;;;0.00;0.00;;;6.90;99.90;;;;;;5062201;28;20024;-57
2024/01/25 09:14:19;;;;;;;0.00;0.00;;;6.90;99.90;;;;;;5066951;28;20118;-58
2024/01/25 09:16:45;;;;;;;0.00;0.00;;;6.90;99.90;;;;;;5062550;28;20120;-56
2024/01/25 09:19:10;;;;;;;0.00;0.00;;;6.80;99.90;;;;;;5064466;28;20421;-56
2024/01/25 09:21:39;;;;;;;0.00;0.00;;;6.80;99.90;;;;;;5063692;28;20042;-56
2024/01/25 09:24:06;;;;;;;0.00;0.00;;;6.90;99.90;;;;;;5064721;28;20028;-55
2024/01/25 09:26:32;;;;;;;0.00;0.00;;;7.00;99.90;;;;;;5062740;28;20016;-55
2024/01/25 09:28:57;;;;;;;0.00;0.00;;;6.90;99.90;;;;;;5064892;28;20436;-56
2024/01/25 09:31:23;;;;;;;0.00;0.00;;;7.00;99.90;;;;;;5063957;28;20017;-55
2024/01/25 09:33:48;;;;;;;0.00;0.00;;;7.10;99.90;;;;;;5062615;28;20522;-56
2024/01/25 09:36:15;;;;;;;0.00;0.00;;;7.20;99.90;;;;;;5064006;28;20468;-55
2024/01/25 09:38:41;;;;;;;0.00;0.00;;;7.10;99.90;;;;;;5061724;28;20039;-56
2024/01/25 09:41:07;;;;;;;0.00;0.00;;;7.10;99.90;;;;;;5058762;28;20484;-55
2024/01/25 09:43:33;;;;;;;0.00;0.00;;;7.30;99.90;;;;;;5063403;28;20471;-56
2024/01/25 09:46:00;;;;;;;0.00;0.00;;;7.30;99.90;;;;;;5069012;28;20503;-57
2024/01/25 09:48:26;;;;;;;0.00;0.00;;;7.40;99.90;;;;;;5070953;28;20032;-55
2024/01/25 09:50:55;;;;;;;0.00;0.00;;;7.30;99.90;;;;;;5068048;28;20595;-56
2024/01/25 09:53:24;;;;;;;0.00;0.00;;;7.30;99.90;;;;;;5071091;28;20019;-55
2024/01/25 09:56:10;;;;;;;0.00;0.00;;;7.20;99.90;;;;;;5068667;28;20475;-56
2024/01/25 09:58:38;;;;;;;0.00;0.00;;;7.40;99.90;;;;;;5065017;28;20032;-56
2024/01/25 10:01:05;;;;;;;0.00;0.00;;;7.50;99.90;;;;;;5063616;28;20028;-56
2024/01/25 10:03:30;;;;;;;0.00;0.00;;;7.50;99.90;;;;;;5070127;28;20040;-56
2024/01/25 10:05:56;;;;;;;0.00;0.00;;;7.60;99.90;;;;;;5069051;28;20150;-56
2024/01/25 10:08:23;;;;;;;0.00;0.00;;;7.70;99.90;;;;;;5067167;28;20119;-55
2024/01/25 10:10:50;;;;;;;0.00;0.00;;;7.80;99.90;;;;;;5067143;28;20138;-56
2024/01/25 10:13:15;;;;;;;0.00;0.00;;;7.80;99.90;;;;;;5068910;28;20374;-55
2024/01/25 10:15:45;;;;;;;0.00;0.00;;;7.70;99.90;;;;;;5057486;28;20174;-57
2024/01/25 10:18:13;;;;;;;0.00;0.00;;;7.80;99.90;;;;;;5070525;28;20025;-58
2024/01/25 10:20:40;;;;;;;0.00;0.00;;;7.90;99.90;;;;;;5068287;28;20379;-57
2024/01/25 10:23:06;;;;;;;0.00;0.00;;;7.90;99.90;;;;;;5068273;28;20032;-57
2024/01/25 10:25:34;;;;;;;0.00;0.00;;;7.90;99.90;;;;;;5071843;28;20471;-57
2024/01/25 10:28:00;;;;;;;0.00;0.00;;;7.90;99.90;;;;;;5068095;28;20029;-57
2024/01/25 10:30:27;;;;;;;0.00;0.00;;;8.00;99.90;;;;;;5056673;28;20029;-56
2024/01/25 10:32:57;;;;;;;0.00;0.00;;;7.90;99.90;;;;;;5062617;28;20053;-53
2024/01/25 10:35:23;;;;;;;0.00;0.00;;;7.90;99.90;;;;;;5064071;28;20036;-57
2024/01/25 10:37:49;;;;;;;0.00;0.00;;;8.00;99.90;;;;;;5067868;28;20063;-55
2024/01/25 10:40:16;;;;;;;0.00;0.00;;;8.30;99.90;;;;;;5068507;28;20487;-57
2024/01/25 10:42:41;;;;;;;0.00;0.00;;;8.10;99.90;;;;;;5048481;28;20150;-56
2024/01/25 10:45:07;;;;;;;0.00;0.00;;;8.20;99.90;;;;;;5067525;28;20551;-56
2024/01/25 10:47:35;;;;;;;0.00;0.00;;;8.20;99.90;;;;;;5067481;28;20028;-57
2024/01/25 10:50:02;;;;;;;0.00;0.00;;;8.20;99.90;;;;;;5065682;28;20020;-58
2024/01/25 10:52:28;;;;;;;0.00;0.00;;;8.20;99.90;;;;;;5069896;28;20055;-57
2024/01/25 10:54:54;;;;;;;0.00;0.00;;;8.20;99.90;;;;;;5065545;28;20037;-58
2024/01/25 10:57:20;;;;;;;0.00;0.00;;;8.20;99.90;;;;;;5067285;28;20046;-56
2024/01/25 10:59:46;;;;;;;0.00;0.00;;;8.40;99.90;;;;;;5062135;28;20021;-58
2024/01/25 11:02:12;;;;;;;0.00;0.00;;;8.40;99.90;;;;;;5065300;28;20028;-57
2024/01/25 11:04:37;;;;;;;0.00;0.00;;;8.40;99.90;;;;;;5064813;28;20035;-57
2024/01/25 11:07:08;;;;;;;0.00;0.00;;;8.40;99.90;;;;;;5070688;28;20048;-58
2024/01/25 11:09:36;;;;;;;0.00;0.00;;;8.50;99.90;;;;;;5064559;28;20079;-58
2024/01/25 11:12:15;;;;;;;0.00;0.00;;;8.40;99.90;;;;;;5067333;28;20111;-58
2024/01/25 11:14:40;;;;;;;0.00;0.00;;;7.10;99.90;;;;;;5063859;28;20436;-58
2024/01/25 11:17:20;;;;;;;0.00;0.00;;;8.60;99.90;;;;;;5063534;28;20064;-58
2024/01/25 11:19:47;;;;;;;0.00;0.00;;;8.60;99.90;;;;;;5063178;28;20021;-57
2024/01/25 11:22:13;;;;;;;0.00;0.00;;;8.60;99.90;;;;;;5061669;28;20033;-57
2024/01/25 11:24:39;;;;;;;0.00;0.00;;;8.60;99.90;;;;;;5043328;28;20029;-56
2024/01/25 11:27:07;;;;;;;0.00;0.00;;;;;;;;;;5066307;28;20089;-58
2024/01/25 11:29:34;;;;;;;0.00;0.00;;;;;;;;;;5062095;28;20028;-58
2024/01/25 11:32:00;;;;;;;0.00;0.00;;;8.60;99.90;;;;;;5071046;28;20098;-57
2024/01/25 11:34:25;;;;;;;0.00;0.00;;;8.50;99.90;;;;;;5064012;28;20425;-58
2024/01/25 11:36:51;;;;;;;0.00;0.00;;;8.70;99.90;;;;;;5069286;28;20041;-57
2024/01/25 11:39:17;;;;;;;0.00;0.00;;;8.50;99.90;;;;;;5067789;28;20062;-57
2024/01/25 11:41:44;;;;;;;0.00;0.00;;;8.80;99.90;;;;;;5065772;28;20074;-57
2024/01/25 11:44:11;;;;;;;0.00;0.00;;;;;;;;;;5061705;28;20243;-57
2024/01/25 11:46:37;;;;;;;0.00;0.00;;;;;;;;;;5064954;28;20472;-57
2024/01/25 11:49:03;;;;;;;0.00;0.00;;;;;;;;;;5065249;28;20547;-57
2024/01/25 11:51:29;;;;;;;0.00;0.00;;;;;;;;;;5068259;28;20111;-58
2024/01/25 11:53:56;;;;;;;0.00;0.00;;;;;;;;;;5069219;28;20056;-57
2024/01/25 11:56:28;;;;;;;0.00;0.00;;;9.00;99.90;;;;;;5065064;28;20516;-54
2024/01/25 11:58:56;;;;;;;0.00;0.00;;;9.20;99.90;;;;;;5064936;28;20610;-55
2024/01/25 12:01:23;;;;;;;0.00;0.00;;;9.10;99.90;;;;;;5062509;28;20166;-56
2024/01/25 12:03:49;;;;;;;0.00;0.00;;;9.20;99.90;;;;;;5069248;28;20021;-57
2024/01/25 12:06:15;;;;;;;0.00;0.00;;;9.10;99.90;;;;;;5052894;28;20028;-54
2024/01/25 12:08:40;;;;;;;0.00;0.00;;;9.10;99.90;;;;;;5069849;28;20121;-55
2024/01/25 12:11:10;;;;;;;0.00;0.00;;;8.90;99.90;;;;;;5065416;28;20246;-55
2024/01/25 12:13:39;;;;;;;0.00;0.00;;;8.80;99.90;;;;;;5065728;28;20040;-56
2024/01/25 12:16:06;;;;;;;0.00;0.00;;;8.80;99.90;;;;;;5056294;28;20036;-56
2024/01/25 12:18:32;;;;;;;0.00;0.00;;;9.00;99.90;;;;;;5066820;28;20042;-55
2024/01/25 12:21:03;;;;;;;0.00;0.00;;;8.90;99.90;;;;;;5063563;28;20028;-56
2024/01/25 12:23:37;;;;;;;0.00;0.00;;;8.90;99.90;;;;;;5062797;28;20058;-55
2024/01/25 12:26:09;;;;;;;;;;;9.00;99.90;;;;;;5061739;28;20491;-54
2024/01/25 12:28:35;;;;;;;0.00;0.00;;;8.90;99.90;;;;;;5062072;28;19943;-55
2024/01/25 12:31:03;;;;;;;0.00;0.00;;;8.90;99.90;;;;;;5045938;28;20476;-56
2024/01/25 12:33:28;;;;;;;0.00;0.00;;;8.80;99.90;;;;;;5065983;28;20020;-54
2024/01/25 12:35:54;;;;;;;0.00;0.00;;;8.90;99.90;;;;;;5063428;28;20043;-55
2024/01/25 12:38:21;;;;;;;0.00;0.00;;;9.10;99.90;;;;;;5069864;28;20036;-55
2024/01/25 12:40:48;;;;;;;0.00;0.00;;;9.10;99.90;;;;;;5065113;28;20025;-56
2024/01/25 12:43:15;;;;;;;0.00;0.00;;;9.00;99.90;;;;;;5063697;28;20043;-56
2024/01/25 12:45:40;;;;;;;0.00;0.00;;;9.20;99.90;;;;;;5044756;28;20032;-56
2024/01/25 12:48:07;;;;;;;0.00;0.00;;;9.20;99.90;;;;;;5059135;28;20040;-56
2024/01/25 12:50:33;;;;;;;0.00;0.00;;;9.00;99.90;;;;;;5063590;28;20091;-55
2024/01/25 12:53:00;;;;;;;0.00;0.00;;;9.10;99.90;;;;;;5046298;28;20082;-55
2024/01/25 12:55:26;;;;;;;0.00;0.00;;;9.10;99.90;;;;;;5067159;28;20033;-55